Time;durP1;ratioP1;P1;durP2;ratioP2;P2;SDS_P1;SDS_P2;PMS_P1;PMS_P2;Temp;Humidity;BMP_temperature;BMP_pressure;BME280_temperature;BME280_humidity;BME280_pressure;Samples;Min_cycle;Max_cycle;Signal;HPM_P1;HPM_P2
2023/05/12 00:02:24;;;;;;;11.98;10.18;;;13.00;83.40;;;;;;5005004;28;20041;-71
2023/05/12 00:04:50;;;;;;;13.77;11.93;;;13.00;83.50;;;;;;5009066;28;20556;-71
2023/05/12 00:07:16;;;;;;;12.43;10.85;;;13.00;83.60;;;;;;5017523;28;20400;-70
2023/05/12 00:09:41;;;;;;;12.55;10.32;;;13.00;83.60;;;;;;5021184;28;20041;-70
2023/05/12 00:12:08;;;;;;;12.23;10.60;;;13.00;83.60;;;;;;4991844;28;20046;-71
2023/05/12 00:14:37;;;;;;;12.00;10.05;;;13.00;83.70;;;;;;5029475;28;20053;-70
2023/05/12 00:17:06;;;;;;;10.43;8.63;;;13.00;83.80;;;;;;5022610;28;20037;-71
2023/05/12 00:19:32;;;;;;;12.00;9.65;;;13.00;83.80;;;;;;5019201;28;20033;-70
2023/05/12 00:21:58;;;;;;;9.48;7.63;;;13.00;83.90;;;;;;5024164;28;20473;-70
2023/05/12 00:24:24;;;;;;;9.65;7.85;;;13.00;83.90;;;;;;5017263;28;20076;-70
2023/05/12 00:26:50;;;;;;;9.32;7.30;;;13.00;83.90;;;;;;5022071;28;20037;-70
2023/05/12 00:29:16;;;;;;;8.73;7.40;;;13.00;84.00;;;;;;5021935;28;20500;-72
2023/05/12 00:31:41;;;;;;;9.30;7.72;;;13.00;84.00;;;;;;5027542;28;20124;-72
2023/05/12 00:34:07;;;;;;;8.00;7.18;;;13.00;84.00;;;;;;5027617;28;20042;-71
2023/05/12 00:36:33;;;;;;;7.72;6.47;;;13.00;84.00;;;;;;5020571;28;20038;-71
2023/05/12 00:38:58;;;;;;;7.25;5.80;;;13.00;84.00;;;;;;5008426;28;20064;-71
2023/05/12 00:41:24;;;;;;;6.78;5.55;;;13.00;84.10;;;;;;5021561;28;20041;-71
2023/05/12 00:43:51;;;;;;;6.85;5.40;;;13.00;84.10;;;;;;5022477;28;20044;-71
2023/05/12 00:46:17;;;;;;;7.35;5.25;;;13.00;84.20;;;;;;5006176;28;20529;-71
2023/05/12 00:48:44;;;;;;;6.07;5.18;;;13.00;84.20;;;;;;5022860;28;20037;-71
2023/05/12 00:51:11;;;;;;;5.53;4.53;;;13.00;84.30;;;;;;5019270;28;20064;-71
2023/05/12 00:53:37;;;;;;;5.85;4.70;;;13.00;84.40;;;;;;5006049;28;20048;-71
2023/05/12 00:56:03;;;;;;;6.97;4.70;;;13.00;84.40;;;;;;5021860;28;20033;-71
2023/05/12 00:58:29;;;;;;;5.07;4.13;;;13.00;84.40;;;;;;5023281;28;20033;-71
2023/05/12 01:00:55;;;;;;;4.68;3.80;;;13.00;84.30;;;;;;5017840;28;20034;-71
2023/05/12 01:03:21;;;;;;;6.40;4.80;;;13.00;84.40;;;;;;5024723;28;20049;-70
2023/05/12 01:06:07;;;;;;;5.95;4.57;;;13.00;84.40;;;;;;5009400;28;20046;-71
2023/05/12 01:08:33;;;;;;;6.53;4.90;;;13.00;84.50;;;;;;5028876;28;20087;-71
2023/05/12 01:10:59;;;;;;;8.45;6.45;;;13.00;84.50;;;;;;5028214;28;20045;-70
2023/05/12 01:13:26;;;;;;;8.70;7.18;;;13.00;84.40;;;;;;5005212;28;20041;-71
2023/05/12 01:15:54;;;;;;;12.70;8.50;;;13.00;84.50;;;;;;5005780;28;20498;-70
2023/05/12 01:18:22;;;;;;;11.32;8.48;;;13.00;84.50;;;;;;5024191;28;20488;-70
2023/05/12 01:20:49;;;;;;;10.90;8.70;;;13.00;84.50;;;;;;5011474;28;20039;-71
2023/05/12 01:23:18;;;;;;;11.57;9.48;;;13.00;84.50;;;;;;5015237;28;20038;-71
2023/05/12 01:25:47;;;;;;;16.55;11.30;;;13.10;84.70;;;;;;5015125;28;20038;-71
2023/05/12 01:28:14;;;;;;;14.38;11.55;;;13.00;84.60;;;;;;5010823;28;20065;-71
2023/05/12 01:30:42;;;;;;;17.60;12.90;;;13.00;84.60;;;;;;5022133;28;20045;-71
2023/05/12 01:33:09;;;;;;;19.58;14.95;;;13.00;84.70;;;;;;5025306;28;20050;-71
2023/05/12 01:35:35;;;;;;;21.38;14.75;;;13.00;84.70;;;;;;5025313;28;20045;-71
2023/05/12 01:38:00;;;;;;;15.77;12.30;;;13.00;84.80;;;;;;5025476;28;20496;-71
2023/05/12 01:40:26;;;;;;;20.05;13.20;;;13.00;84.90;;;;;;5027386;28;20099;-72
2023/05/12 01:42:52;;;;;;;17.98;13.45;;;13.00;85.00;;;;;;5027664;28;20038;-72
2023/05/12 01:45:18;;;;;;;21.73;14.52;;;13.00;85.10;;;;;;5026822;28;20085;-71
2023/05/12 01:47:43;;;;;;;18.83;13.73;;;13.00;85.00;;;;;;5026981;28;20041;-71
2023/05/12 01:50:09;;;;;;;22.40;16.83;;;13.00;85.10;;;;;;5025793;28;20053;-71
2023/05/12 01:52:35;;;;;;;24.67;17.10;;;13.00;85.10;;;;;;5025055;28;20041;-71
2023/05/12 01:55:01;;;;;;;23.67;16.55;;;13.00;85.20;;;;;;5005975;28;20370;-71
2023/05/12 01:57:27;;;;;;;25.48;18.23;;;13.00;85.30;;;;;;5028559;28;20048;-71
2023/05/12 01:59:53;;;;;;;26.85;19.95;;;13.00;85.40;;;;;;5022286;28;20489;-72
2023/05/12 02:02:18;;;;;;;23.35;16.42;;;12.90;85.40;;;;;;5026771;28;20029;-72
2023/05/12 02:04:44;;;;;;;26.98;17.77;;;13.00;85.50;;;;;;5015592;28;20215;-72
2023/05/12 02:07:09;;;;;;;22.20;16.20;;;13.00;85.60;;;;;;5025280;28;20125;-70
2023/05/12 02:09:35;;;;;;;26.35;18.27;;;13.00;85.70;;;;;;5017942;28;20096;-70
2023/05/12 02:12:01;;;;;;;24.02;17.23;;;13.00;85.80;;;;;;5025579;28;20451;-71
2023/05/12 02:14:27;;;;;;;25.90;19.60;;;13.00;85.80;;;;;;5022203;28;20041;-70
2023/05/12 02:16:54;;;;;;;29.10;20.00;;;13.00;85.80;;;;;;5028815;28;20044;-70
2023/05/12 02:19:20;;;;;;;29.63;19.75;;;13.00;85.90;;;;;;5026967;28;20049;-70
2023/05/12 02:21:46;;;;;;;24.20;18.20;;;13.00;86.00;;;;;;5027059;28;20037;-70
2023/05/12 02:24:12;;;;;;;28.25;20.02;;;13.00;86.00;;;;;;5026602;28;20437;-71
2023/05/12 02:26:39;;;;;;;38.47;22.15;;;13.00;86.00;;;;;;5024549;28;20049;-71
2023/05/12 02:29:05;;;;;;;30.92;19.77;;;13.00;86.10;;;;;;4994404;28;20153;-71
2023/05/12 02:31:30;;;;;;;31.27;20.10;;;13.00;86.00;;;;;;5014521;28;20047;-71
2023/05/12 02:33:57;;;;;;;32.10;21.15;;;13.00;86.10;;;;;;4997389;28;20037;-70
2023/05/12 02:36:23;;;;;;;29.65;20.60;;;13.00;86.10;;;;;;5016865;28;20041;-72
2023/05/12 02:38:48;;;;;;;29.73;19.65;;;13.00;86.20;;;;;;5024158;28;20041;-70
2023/05/12 02:41:14;;;;;;;33.70;20.67;;;13.00;86.20;;;;;;4999143;28;20128;-70
2023/05/12 02:43:40;;;;;;;26.33;17.60;;;13.00;86.30;;;;;;5013739;28;20489;-70
2023/05/12 02:46:05;;;;;;;37.30;22.98;;;13.00;86.20;;;;;;5021365;28;20469;-70
2023/05/12 02:48:31;;;;;;;28.20;20.23;;;13.00;86.30;;;;;;5021890;28;20073;-72
2023/05/12 02:50:57;;;;;;;33.88;22.15;;;13.00;86.30;;;;;;4996942;28;20045;-72
2023/05/12 02:53:22;;;;;;;30.13;20.65;;;13.00;86.30;;;;;;5013813;28;20085;-72
2023/05/12 02:55:48;;;;;;;34.38;22.50;;;13.00;86.40;;;;;;5016018;28;20516;-71
2023/05/12 02:58:14;;;;;;;35.92;22.73;;;13.00;86.40;;;;;;5013009;28;20508;-71
2023/05/12 03:00:40;;;;;;;32.75;20.20;;;13.00;86.50;;;;;;5017083;28;20038;-71
2023/05/12 03:03:06;;;;;;;35.05;23.80;;;13.10;86.60;;;;;;5024398;28;20037;-71
2023/05/12 03:05:32;;;;;;;31.33;21.95;;;13.00;86.50;;;;;;5029562;28;20473;-71
2023/05/12 03:07:57;;;;;;;38.47;23.17;;;13.00;86.60;;;;;;5013070;28;20045;-71
2023/05/12 03:10:23;;;;;;;35.03;21.35;;;13.00;86.60;;;;;;5020045;28;20049;-70
2023/05/12 03:12:49;;;;;;;39.00;23.48;;;13.00;86.70;;;;;;5010236;28;20041;-71
2023/05/12 03:15:15;;;;;;;37.22;24.75;;;13.00;86.70;;;;;;5012774;28;20052;-71
2023/05/12 03:17:41;;;;;;;34.25;22.85;;;13.10;86.80;;;;;;5012997;28;20104;-71
2023/05/12 03:20:07;;;;;;;41.92;26.63;;;13.10;86.90;;;;;;4998346;28;20034;-71
2023/05/12 03:22:33;;;;;;;36.33;23.38;;;13.10;86.80;;;;;;5023635;28;20038;-70
2023/05/12 03:24:58;;;;;;;35.10;23.05;;;13.10;86.90;;;;;;5031695;28;20048;-70
2023/05/12 03:27:24;;;;;;;32.85;22.80;;;13.10;86.90;;;;;;5001648;28;20104;-72
2023/05/12 03:29:50;;;;;;;40.63;25.77;;;13.00;86.90;;;;;;5014437;28;20053;-70
2023/05/12 03:32:16;;;;;;;34.20;22.50;;;13.10;87.00;;;;;;5031128;28;20045;-70
2023/05/12 03:34:42;;;;;;;40.05;25.30;;;13.10;87.00;;;;;;5015658;28;20048;-71
2023/05/12 03:37:07;;;;;;;37.40;25.10;;;13.10;87.10;;;;;;5025533;28;20566;-71
2023/05/12 03:39:33;;;;;;;38.80;27.15;;;13.10;87.10;;;;;;5012628;28;20465;-71
2023/05/12 03:41:59;;;;;;;47.13;28.10;;;13.10;87.10;;;;;;5012686;28;20524;-71
2023/05/12 03:44:24;;;;;;;37.20;25.02;;;13.10;87.20;;;;;;4996323;28;20394;-71
2023/05/12 03:46:50;;;;;;;33.72;23.42;;;13.10;87.20;;;;;;5006814;28;20056;-71
2023/05/12 03:49:16;;;;;;;39.67;26.00;;;13.10;87.20;;;;;;5015419;28;20048;-71
2023/05/12 03:51:41;;;;;;;43.50;27.83;;;13.10;87.30;;;;;;5003094;28;20038;-71
2023/05/12 03:54:07;;;;;;;37.58;24.65;;;13.10;87.30;;;;;;5020185;28;20480;-71
2023/05/12 03:56:33;;;;;;;42.97;27.35;;;13.10;87.40;;;;;;5020779;28;20392;-71
2023/05/12 03:58:58;;;;;;;44.55;28.25;;;13.10;87.40;;;;;;5025951;28;20045;-71
2023/05/12 04:01:24;;;;;;;45.22;27.73;;;13.10;87.50;;;;;;4996671;28;20045;-71
2023/05/12 04:03:50;;;;;;;47.78;29.20;;;13.10;87.90;;;;;;5012038;28;20489;-71
2023/05/12 04:06:15;;;;;;;48.03;29.23;;;13.10;87.50;;;;;;5012627;28;20049;-70
2023/05/12 04:08:41;;;;;;;47.00;28.05;;;13.10;87.60;;;;;;5012587;28;20096;-70
2023/05/12 04:11:07;;;;;;;46.28;29.58;;;13.10;87.60;;;;;;4995676;28;20084;-70
2023/05/12 04:13:33;;;;;;;52.08;28.98;;;13.10;87.60;;;;;;5022191;28;20057;-70
2023/05/12 04:15:59;;;;;;;44.50;28.08;;;13.20;87.80;;;;;;5031429;28;20037;-70
2023/05/12 04:18:26;;;;;;;50.47;29.85;;;13.10;87.70;;;;;;5031714;28;20488;-70
2023/05/12 04:20:52;;;;;;;46.55;28.55;;;13.20;87.90;;;;;;5026116;28;20493;-70
2023/05/12 04:23:18;;;;;;;49.33;30.55;;;13.10;87.90;;;;;;5028983;28;20041;-72
2023/05/12 04:25:44;;;;;;;49.38;30.92;;;13.20;88.00;;;;;;5027061;28;20052;-72
2023/05/12 04:28:10;;;;;;;46.22;29.05;;;13.20;88.00;;;;;;4995726;28;20096;-72
2023/05/12 04:30:38;;;;;;;46.03;28.73;;;13.20;88.00;;;;;;5018115;28;20042;-71
2023/05/12 04:33:04;;;;;;;45.70;28.80;;;13.20;88.10;;;;;;5014730;28;20504;-71
2023/05/12 04:35:29;;;;;;;47.05;29.33;;;13.20;88.00;;;;;;5023910;28;20080;-71
2023/05/12 04:37:55;;;;;;;46.90;28.75;;;13.20;88.10;;;;;;5036334;28;20491;-71
2023/05/12 04:40:21;;;;;;;45.60;29.45;;;13.20;88.20;;;;;;5034480;28;20042;-72
2023/05/12 04:42:46;;;;;;;43.67;26.80;;;13.20;88.30;;;;;;5015677;28;20508;-71
2023/05/12 04:45:12;;;;;;;49.92;31.48;;;13.20;88.30;;;;;;5015771;28;20124;-71
2023/05/12 04:47:38;;;;;;;47.25;30.63;;;13.20;88.30;;;;;;5006707;28;20064;-71
2023/05/12 04:50:04;;;;;;;45.13;30.52;;;13.20;88.30;;;;;;5035012;28;20128;-71
2023/05/12 04:52:30;;;;;;;43.20;28.95;;;13.30;88.40;;;;;;5017268;28;20038;-72
2023/05/12 04:54:56;;;;;;;49.60;30.98;;;13.20;88.40;;;;;;5015525;28;20056;-72
2023/05/12 04:57:22;;;;;;;48.67;30.25;;;13.20;88.40;;;;;;5019998;28;20128;-72
2023/05/12 04:59:47;;;;;;;42.97;28.40;;;13.20;88.40;;;;;;5020780;28;20034;-71
2023/05/12 05:02:13;;;;;;;51.15;31.63;;;13.20;88.40;;;;;;5018641;28;20120;-71
2023/05/12 05:04:39;;;;;;;47.53;29.83;;;13.20;88.40;;;;;;5022401;28;20452;-71
2023/05/12 05:07:05;;;;;;;47.83;29.92;;;13.20;88.50;;;;;;5026490;28;20045;-70
2023/05/12 05:09:30;;;;;;;44.58;29.13;;;13.30;88.60;;;;;;5025709;28;20511;-71
2023/05/12 05:11:56;;;;;;;44.33;28.58;;;13.30;88.60;;;;;;4998745;28;20038;-71
2023/05/12 05:14:22;;;;;;;47.88;29.65;;;13.30;88.60;;;;;;5048169;28;20049;-71
2023/05/12 05:16:48;;;;;;;44.45;29.02;;;13.30;88.70;;;;;;4998598;28;20049;-71
2023/05/12 05:19:14;;;;;;;46.88;29.67;;;13.30;88.80;;;;;;5031022;28;20072;-72
2023/05/12 05:21:40;;;;;;;41.60;28.13;;;13.30;88.80;;;;;;5019858;28;20042;-71
2023/05/12 05:24:06;;;;;;;42.03;28.17;;;13.30;88.70;;;;;;5021796;28;20045;-71
2023/05/12 05:26:32;;;;;;;40.42;27.45;;;13.30;88.80;;;;;;5034712;28;20041;-70
2023/05/12 05:28:58;;;;;;;45.85;28.85;;;13.30;88.80;;;;;;5034339;28;20053;-70
2023/05/12 05:31:24;;;;;;;40.20;28.73;;;13.30;88.80;;;;;;5034509;28;20079;-71
2023/05/12 05:33:49;;;;;;;39.15;26.17;;;13.30;88.80;;;;;;4983265;28;20042;-71
2023/05/12 05:36:15;;;;;;;43.95;28.05;;;13.40;88.90;;;;;;5014596;28;20049;-72
2023/05/12 05:38:41;;;;;;;40.75;28.08;;;13.40;88.90;;;;;;5015777;28;20045;-71
2023/05/12 05:41:07;;;;;;;41.65;27.05;;;13.40;88.90;;;;;;5014530;28;20072;-71
2023/05/12 05:43:33;;;;;;;36.97;26.15;;;13.40;88.90;;;;;;4998330;28;20135;-71
2023/05/12 05:45:59;;;;;;;41.05;27.73;;;13.40;88.90;;;;;;5013425;28;20493;-71
2023/05/12 05:48:25;;;;;;;41.30;27.98;;;13.40;88.90;;;;;;4998545;28;20045;-71
2023/05/12 05:50:51;;;;;;;39.17;26.40;;;13.50;88.90;;;;;;5014219;28;20563;-71
2023/05/12 05:53:18;;;;;;;38.50;27.35;;;13.50;88.90;;;;;;5021882;28;20049;-72
2023/05/12 05:55:44;;;;;;;38.65;26.50;;;13.50;88.90;;;;;;5009306;28;20042;-71
2023/05/12 05:58:10;;;;;;;35.65;24.42;;;13.50;88.90;;;;;;5029957;28;20041;-70
2023/05/12 06:00:36;;;;;;;36.97;26.20;;;13.50;88.80;;;;;;5034082;28;20045;-70
2023/05/12 06:03:01;;;;;;;39.33;26.13;;;13.60;88.80;;;;;;5017531;28;20041;-70
2023/05/12 06:05:27;;;;;;;33.72;24.67;;;13.60;88.70;;;;;;5021005;28;20116;-72
2023/05/12 06:07:53;;;;;;;32.95;25.02;;;13.60;88.60;;;;;;5031962;28;20477;-71
2023/05/12 06:10:19;;;;;;;34.97;24.90;;;13.60;88.50;;;;;;5026855;28;20116;-72
2023/05/12 06:12:45;;;;;;;36.85;26.15;;;13.60;88.40;;;;;;5032820;28;20090;-71
2023/05/12 06:15:11;;;;;;;35.65;24.55;;;13.60;88.40;;;;;;5013793;28;20525;-71
2023/05/12 06:17:37;;;;;;;35.28;25.38;;;13.60;88.30;;;;;;5006929;28;20098;-72
2023/05/12 06:20:04;;;;;;;35.15;25.17;;;13.60;88.30;;;;;;5017638;28;20034;-71
2023/05/12 06:22:30;;;;;;;36.72;25.27;;;13.60;88.30;;;;;;5013536;28;20041;-72
2023/05/12 06:24:56;;;;;;;36.00;25.20;;;13.60;88.30;;;;;;4997498;28;20181;-72
2023/05/12 06:27:21;;;;;;;38.03;26.35;;;13.60;88.30;;;;;;5013494;28;20477;-67
2023/05/12 06:29:47;;;;;;;35.50;25.67;;;13.70;88.30;;;;;;5014345;28;20048;-67
2023/05/12 06:32:13;;;;;;;36.03;25.00;;;13.70;88.30;;;;;;5014628;28;20129;-67
2023/05/12 06:34:39;;;;;;;35.88;26.10;;;13.70;88.20;;;;;;5022764;28;20398;-67
2023/05/12 06:37:05;;;;;;;33.97;25.48;;;13.70;88.20;;;;;;5013091;28;20038;-68
2023/05/12 06:39:31;;;;;;;41.22;26.27;;;13.70;88.20;;;;;;5013442;28;20052;-68
2023/05/12 06:41:56;;;;;;;34.95;25.80;;;13.70;88.20;;;;;;5013339;28;20481;-67
2023/05/12 06:44:22;;;;;;;33.13;25.10;;;13.70;88.20;;;;;;5013499;28;20037;-67
2023/05/12 06:46:48;;;;;;;40.95;27.23;;;13.70;88.10;;;;;;5024444;28;20050;-67
2023/05/12 06:49:14;;;;;;;37.75;26.27;;;13.80;88.10;;;;;;5023871;28;20045;-67
2023/05/12 06:51:39;;;;;;;36.40;25.05;;;13.80;88.20;;;;;;5012900;28;20049;-67
2023/05/12 06:54:05;;;;;;;37.22;24.48;;;13.80;88.20;;;;;;5023760;28;20069;-67
2023/05/12 06:56:31;;;;;;;37.88;26.75;;;13.80;88.10;;;;;;5016431;28;20042;-67
2023/05/12 06:59:03;;;;;;;36.20;23.75;;;13.90;88.10;;;;;;5015092;28;20042;-67
2023/05/12 07:01:30;;;;;;;32.38;24.13;;;13.90;88.10;;;;;;5017850;28;20084;-67
2023/05/12 07:03:57;;;;;;;36.28;25.65;;;13.90;88.20;;;;;;5013546;28;20038;-68
2023/05/12 07:06:23;;;;;;;37.67;26.67;;;13.90;88.20;;;;;;5022140;28;20073;-68
2023/05/12 07:08:49;;;;;;;35.58;25.35;;;14.00;88.30;;;;;;5052377;28;20044;-67
2023/05/12 07:11:18;;;;;;;31.13;23.98;;;14.00;88.20;;;;;;5052330;28;20037;-68
2023/05/12 07:13:48;;;;;;;39.35;26.67;;;14.00;88.10;;;;;;5037876;28;20408;-68
2023/05/12 07:16:15;;;;;;;36.05;26.20;;;14.00;88.20;;;;;;5031780;28;20125;-68
2023/05/12 07:18:42;;;;;;;35.13;27.33;;;14.00;88.20;;;;;;5032216;28;20052;-67
2023/05/12 07:21:08;;;;;;;39.28;26.77;;;14.10;88.20;;;;;;5030767;28;20409;-67
2023/05/12 07:23:35;;;;;;;37.55;26.10;;;14.10;88.30;;;;;;5032069;28;20045;-67
2023/05/12 07:26:02;;;;;;;36.40;27.25;;;14.10;88.30;;;;;;5015643;28;20052;-67
2023/05/12 07:28:35;;;;;;;36.25;25.42;;;14.20;88.30;;;;;;5015145;28;20065;-67
2023/05/12 07:31:02;;;;;;;35.92;25.42;;;14.20;88.30;;;;;;5026327;28;20052;-67
2023/05/12 07:33:29;;;;;;;36.28;25.48;;;14.20;88.20;;;;;;5031740;28;20056;-68
2023/05/12 07:35:55;;;;;;;33.95;26.15;;;14.20;88.10;;;;;;5031239;28;20045;-68
2023/05/12 07:38:21;;;;;;;34.17;25.50;;;14.30;88.20;;;;;;5014581;28;20130;-67
2023/05/12 07:40:46;;;;;;;35.80;25.73;;;14.30;88.20;;;;;;5031883;28;20073;-67
2023/05/12 07:43:12;;;;;;;37.22;27.02;;;14.30;88.20;;;;;;5015124;28;20125;-67
2023/05/12 07:45:38;;;;;;;40.55;27.02;;;14.40;88.30;;;;;;5012286;28;20046;-68
2023/05/12 07:48:03;;;;;;;52.42;30.00;;;14.40;88.40;;;;;;5011906;28;20500;-68
2023/05/12 07:50:29;;;;;;;40.88;27.27;;;14.40;88.30;;;;;;5012120;28;20030;-67
2023/05/12 07:52:55;;;;;;;44.75;29.77;;;14.40;88.30;;;;;;4996597;28;20041;-68
2023/05/12 07:55:21;;;;;;;38.60;27.42;;;14.50;88.40;;;;;;5012365;28;20088;-67
2023/05/12 07:57:48;;;;;;;41.05;27.05;;;14.50;88.50;;;;;;5021743;28;20092;-67
2023/05/12 08:00:14;;;;;;;43.47;28.42;;;14.60;88.60;;;;;;5044105;28;20046;-68
2023/05/12 08:02:41;;;;;;;34.65;26.77;;;14.60;88.60;;;;;;5047999;28;20118;-68
2023/05/12 08:05:08;;;;;;;35.33;25.33;;;14.60;88.40;;;;;;5031775;28;20049;-68
2023/05/12 08:07:35;;;;;;;39.20;26.10;;;14.70;88.50;;;;;;5030665;28;20049;-68
2023/05/12 08:10:02;;;;;;;36.35;27.20;;;14.80;88.70;;;;;;5021191;28;20037;-71
2023/05/12 08:12:28;;;;;;;34.08;25.60;;;14.80;88.70;;;;;;5024067;28;20046;-71
2023/05/12 08:14:53;;;;;;;35.65;25.98;;;14.90;88.70;;;;;;5025405;28;20061;-71
2023/05/12 08:17:19;;;;;;;34.47;24.90;;;14.90;88.50;;;;;;5022175;28;20042;-71
2023/05/12 08:19:45;;;;;;;36.10;26.20;;;15.00;88.30;;;;;;5022714;28;20091;-71
2023/05/12 08:22:11;;;;;;;33.30;26.30;;;15.00;88.20;;;;;;5023594;28;20095;-71
2023/05/12 08:24:36;;;;;;;31.45;25.13;;;15.10;88.20;;;;;;5017151;28;20045;-71
2023/05/12 08:27:02;;;;;;;34.67;26.08;;;15.20;88.10;;;;;;5031329;28;20041;-70
2023/05/12 08:29:28;;;;;;;32.90;26.10;;;15.20;87.90;;;;;;5031422;28;20041;-72
2023/05/12 08:31:54;;;;;;;31.55;24.58;;;15.30;87.70;;;;;;5031398;28;20048;-71
2023/05/12 08:34:20;;;;;;;31.08;26.13;;;15.40;87.50;;;;;;5031370;28;20073;-71
2023/05/12 08:36:46;;;;;;;32.15;25.05;;;15.40;87.50;;;;;;5031372;28;20526;-71
2023/05/12 08:39:12;;;;;;;32.25;25.20;;;15.40;87.50;;;;;;5029479;28;20052;-71
2023/05/12 08:42:12;;;;;;;29.73;23.92;;;15.60;87.60;;;;;;5032375;28;20392;-71
2023/05/12 08:44:38;;;;;;;29.40;24.17;;;15.70;87.60;;;;;;5031249;28;20121;-71
2023/05/12 08:47:05;;;;;;;30.42;24.52;;;15.80;87.70;;;;;;5031209;28;20573;-71
2023/05/12 08:49:33;;;;;;;29.05;24.55;;;15.80;87.40;;;;;;5031490;28;20050;-71
2023/05/12 08:52:01;;;;;;;30.15;23.88;;;15.90;87.10;;;;;;5029450;28;20053;-71
2023/05/12 08:54:28;;;;;;;30.60;25.15;;;16.00;86.70;;;;;;5011418;28;20049;-71
2023/05/12 08:56:55;;;;;;;30.10;24.83;;;16.00;86.30;;;;;;5012768;28;20137;-70
2023/05/12 08:59:22;;;;;;;25.98;21.38;;;16.10;86.50;;;;;;5011434;28;20038;-71
2023/05/12 09:01:49;;;;;;;29.20;23.23;;;16.20;85.90;;;;;;5011698;28;20053;-72
2023/05/12 09:04:16;;;;;;;27.23;22.92;;;16.20;85.10;;;;;;5011435;28;20515;-71
2023/05/12 09:06:45;;;;;;;24.48;21.77;;;16.20;84.50;;;;;;4995123;28;20045;-72
2023/05/12 09:09:13;;;;;;;24.92;22.20;;;16.30;84.00;;;;;;5011581;28;20193;-71
2023/05/12 09:11:40;;;;;;;24.67;21.70;;;16.30;84.20;;;;;;5011465;28;20041;-71
2023/05/12 09:14:11;;;;;;;24.88;21.35;;;16.40;84.30;;;;;;5023211;28;20054;-71
2023/05/12 09:16:48;;;;;;;22.77;20.38;;;16.50;84.00;;;;;;5014597;28;20451;-72
2023/05/12 09:19:19;;;;;;;24.67;20.95;;;16.50;83.30;;;;;;5014568;28;20048;-70
2023/05/12 09:21:46;;;;;;;23.00;20.50;;;16.60;83.20;;;;;;5023155;28;20041;-71
2023/05/12 09:24:12;;;;;;;23.25;20.48;;;16.60;83.20;;;;;;5014726;28;20042;-71
2023/05/12 09:26:48;;;;;;;27.13;20.88;;;16.70;83.10;;;;;;4998329;28;20115;-71
2023/05/12 09:29:15;;;;;;;22.95;20.42;;;16.70;82.40;;;;;;5015536;28;20061;-70
2023/05/12 09:31:52;;;;;;;21.35;19.08;;;16.70;82.80;;;;;;4998378;28;20049;-70
2023/05/12 09:34:19;;;;;;;20.85;18.73;;;16.80;82.80;;;;;;5020396;28;20050;-71
2023/05/12 09:37:04;;;;;;;23.20;20.65;;;16.80;82.10;;;;;;5034227;28;20038;-71
2023/05/12 09:39:30;;;;;;;22.70;19.75;;;16.90;81.60;;;;;;5034423;28;20041;-71
2023/05/12 09:41:56;;;;;;;23.50;21.05;;;16.90;82.40;;;;;;5034180;28;20041;-71
2023/05/12 09:44:22;;;;;;;20.67;18.52;;;17.00;82.10;;;;;;5021579;28;20045;-71
2023/05/12 09:46:48;;;;;;;18.73;16.80;;;17.10;82.50;;;;;;4998915;28;20049;-71
2023/05/12 09:49:24;;;;;;;19.88;17.77;;;17.10;82.20;;;;;;5014277;28;20049;-71
2023/05/12 09:51:57;;;;;;;23.30;20.23;;;17.20;81.50;;;;;;5014548;28;20046;-71
2023/05/12 09:54:30;;;;;;;21.38;19.17;;;17.30;81.50;;;;;;5014535;28;20524;-71
2023/05/12 09:57:03;;;;;;;22.67;18.53;;;17.40;81.40;;;;;;5013945;28;20042;-72
2023/05/12 09:59:37;;;;;;;20.92;18.83;;;17.50;80.70;;;;;;5033255;28;20763;-72
2023/05/12 10:02:07;;;;;;;19.00;17.10;;;17.60;80.70;;;;;;5017069;28;20056;-71
2023/05/12 10:04:53;;;;;;;22.00;18.20;;;17.70;80.20;;;;;;5032997;28;20048;-71
2023/05/12 10:07:23;;;;;;;21.63;19.33;;;17.80;79.70;;;;;;5027252;28;20045;-71
2023/05/12 10:09:49;;;;;;;18.85;16.85;;;17.90;80.10;;;;;;5013679;28;20121;-71
2023/05/12 10:12:15;;;;;;;20.45;18.25;;;18.00;79.50;;;;;;5013479;28;20121;-70
2023/05/12 10:14:42;;;;;;;20.27;17.77;;;18.10;79.10;;;;;;5013834;28;20642;-71
2023/05/12 10:17:09;;;;;;;19.35;17.35;;;18.30;79.10;;;;;;4997986;28;20037;-71
2023/05/12 10:19:35;;;;;;;19.42;17.20;;;18.40;78.70;;;;;;5014986;28;20456;-71
2023/05/12 10:22:01;;;;;;;20.15;16.88;;;18.50;78.10;;;;;;5013990;28;20038;-71
2023/05/12 10:24:27;;;;;;;17.08;15.35;;;18.60;78.20;;;;;;5013946;28;20049;-70
2023/05/12 10:26:55;;;;;;;15.52;13.48;;;18.70;77.80;;;;;;5013544;28;20485;-70
2023/05/12 10:29:28;;;;;;;15.50;14.07;;;18.80;76.80;;;;;;5013407;28;20084;-71
2023/05/12 10:31:56;;;;;;;16.17;14.57;;;18.90;75.90;;;;;;5013343;28;20053;-71
2023/05/12 10:34:22;;;;;;;15.90;14.00;;;19.00;76.20;;;;;;5019879;28;20400;-71
2023/05/12 10:36:50;;;;;;;15.73;14.10;;;19.10;75.10;;;;;;5033128;28;20476;-70
2023/05/12 10:39:15;;;;;;;14.25;12.63;;;19.20;74.80;;;;;;5017028;28;20443;-71
2023/05/12 10:41:41;;;;;;;16.80;15.00;;;19.20;74.30;;;;;;5032603;28;20029;-71
2023/05/12 10:44:10;;;;;;;14.63;13.23;;;19.40;73.40;;;;;;5032960;28;20507;-71
2023/05/12 10:46:36;;;;;;;15.00;13.18;;;19.50;74.10;;;;;;5032464;28;20042;-70
2023/05/12 10:49:07;;;;;;;14.55;13.05;;;19.60;74.10;;;;;;5033156;28;20088;-70
2023/05/12 10:51:44;;;;;;;11.63;10.43;;;19.80;74.00;;;;;;5031547;28;20050;-70
2023/05/12 10:54:17;;;;;;;10.07;8.93;;;20.00;74.00;;;;;;5032865;28;20049;-70
2023/05/12 10:56:43;;;;;;;8.55;7.32;;;20.20;72.40;;;;;;5032616;28;20116;-70
2023/05/12 10:59:22;;;;;;;9.73;7.90;;;20.40;72.00;;;;;;5032789;28;20131;-69
2023/05/12 11:02:17;;;;;;;10.70;8.95;;;20.60;70.70;;;;;;5032109;28;20128;-71
2023/05/12 11:04:50;;;;;;;7.45;6.75;;;20.80;71.00;;;;;;5032885;28;20424;-70
2023/05/12 11:07:20;;;;;;;8.75;7.45;;;20.90;68.60;;;;;;5022356;28;20116;-71
2023/05/12 11:09:47;;;;;;;7.97;7.18;;;21.10;67.30;;;;;;5013353;28;20436;-71
2023/05/12 11:12:13;;;;;;;8.88;6.40;;;21.30;65.60;;;;;;5012634;28;20037;-70
2023/05/12 11:14:40;;;;;;;10.20;7.05;;;21.40;65.20;;;;;;5012650;28;20045;-70
2023/05/12 11:17:08;;;;;;;6.85;6.15;;;21.40;65.30;;;;;;5012881;28;20077;-71
2023/05/12 11:19:34;;;;;;;6.07;5.47;;;21.50;64.20;;;;;;5012608;28;20124;-70
2023/05/12 11:22:11;;;;;;;6.25;5.47;;;21.50;62.60;;;;;;5012338;28;20104;-70
2023/05/12 11:24:39;;;;;;;6.18;5.57;;;21.60;65.50;;;;;;5029409;28;20052;-70
2023/05/12 11:27:06;;;;;;;6.95;5.50;;;21.70;64.80;;;;;;5032096;28;20124;-70
2023/05/12 11:29:33;;;;;;;8.23;5.40;;;21.90;63.40;;;;;;5030486;28;20053;-69
2023/05/12 11:31:59;;;;;;;5.97;5.43;;;22.00;62.00;;;;;;5032050;28;20048;-71
2023/05/12 11:34:26;;;;;;;7.00;6.30;;;22.00;61.40;;;;;;5032202;28;20045;-70
2023/05/12 11:36:53;;;;;;;6.30;5.70;;;22.10;61.40;;;;;;5032094;28;20042;-69
2023/05/12 11:39:23;;;;;;;5.35;4.70;;;22.10;60.80;;;;;;5031247;28;20050;-71
2023/05/12 11:41:49;;;;;;;6.53;4.70;;;22.20;59.00;;;;;;5030676;28;20049;-70
2023/05/12 11:44:17;;;;;;;6.38;5.53;;;22.10;58.70;;;;;;5031089;28;20056;-70
2023/05/12 11:46:55;;;;;;;11.95;5.93;;;22.10;59.40;;;;;;5015735;28;20080;-71
2023/05/12 11:49:21;;;;;;;6.57;5.97;;;22.10;60.20;;;;;;5032164;28;20132;-70
2023/05/12 11:51:47;;;;;;;6.65;6.05;;;22.10;61.40;;;;;;5031744;28;20050;-70
2023/05/12 11:54:14;;;;;;;7.07;5.90;;;22.20;61.30;;;;;;5031627;28;20048;-70
2023/05/12 11:56:56;;;;;;;8.75;6.72;;;22.20;61.60;;;;;;5029900;28;20041;-70
2023/05/12 11:59:30;;;;;;;6.38;5.50;;;22.30;60.00;;;;;;5031783;28;20037;-70
2023/05/12 12:02:01;;;;;;;6.45;5.55;;;22.30;58.90;;;;;;5015406;28;20041;-70
2023/05/12 12:04:35;;;;;;;7.55;6.03;;;22.30;59.60;;;;;;5016020;28;20508;-70
2023/05/12 12:07:01;;;;;;;7.03;6.25;;;22.50;60.20;;;;;;5015296;28;20045;-70
2023/05/12 12:09:33;;;;;;;7.82;6.60;;;22.60;59.50;;;;;;5031577;28;20058;-69
2023/05/12 12:12:00;;;;;;;8.68;7.55;;;22.60;59.40;;;;;;5031515;28;20120;-69
2023/05/12 12:14:26;;;;;;;8.52;7.72;;;22.70;59.00;;;;;;5031436;28;20044;-70
2023/05/12 12:16:52;;;;;;;7.72;6.63;;;22.80;58.50;;;;;;5030663;28;20156;-70
2023/05/12 12:19:18;;;;;;;6.70;6.10;;;22.90;59.00;;;;;;5031701;28;20124;-69
2023/05/12 12:21:43;;;;;;;7.13;5.97;;;22.90;57.30;;;;;;5030923;28;20050;-70
2023/05/12 12:24:09;;;;;;;5.25;4.75;;;23.00;57.60;;;;;;5031213;28;20115;-71
2023/05/12 12:26:35;;;;;;;7.68;5.78;;;23.00;55.20;;;;;;5031429;28;20053;-69
2023/05/12 12:29:00;;;;;;;6.82;6.20;;;23.00;54.70;;;;;;5031261;28;20099;-69
2023/05/12 12:31:26;;;;;;;6.43;5.82;;;23.00;54.90;;;;;;5031474;28;20135;-71